createdAt,value
2023-03-24T00:00:25.922Z,1.08
2023-03-24T00:02:52.793Z,1.20
2023-03-24T00:05:22.347Z,2.35
2023-03-24T00:07:54.555Z,1.00
2023-03-24T00:10:22.821Z,1.52
2023-03-24T00:12:50.672Z,1.13
2023-03-24T00:15:21.422Z,1.45
2023-03-24T00:17:52.534Z,1.38
2023-03-24T00:20:22.297Z,2.60
2023-03-24T00:22:56.965Z,1.98
2023-03-24T00:25:29.798Z,1.45
2023-03-24T00:27:57.734Z,1.13
2023-03-24T00:30:26.106Z,0.83
2023-03-24T00:32:54.003Z,0.98
2023-03-24T00:35:21.913Z,1.40
2023-03-24T00:37:52.072Z,1.00
2023-03-24T00:40:21.107Z,1.40
2023-03-24T00:42:49.776Z,1.40
2023-03-24T00:45:23.406Z,1.10
2023-03-24T00:47:54.055Z,1.98
2023-03-24T00:50:27.193Z,2.22
2023-03-24T00:52:56.095Z,1.08
2023-03-24T00:55:23.323Z,1.30
2023-03-24T00:57:51.225Z,0.80
2023-03-24T01:00:24.755Z,1.23
2023-03-24T01:02:55.664Z,1.50
2023-03-24T01:05:28.468Z,1.30
2023-03-24T01:08:03.852Z,1.40
2023-03-24T01:10:35.279Z,0.80
2023-03-24T01:13:02.537Z,1.50
2023-03-24T01:15:33.390Z,1.20
2023-03-24T01:18:03.400Z,1.50
2023-03-24T01:20:35.470Z,1.45
2023-03-24T01:23:07.849Z,0.88
2023-03-24T01:25:37.193Z,1.58
2023-03-24T01:30:31.905Z,1.10
2023-03-24T01:32:58.949Z,1.00
2023-03-24T01:35:28.947Z,1.00
2023-03-24T01:37:56.675Z,0.93
2023-03-24T01:40:28.213Z,1.35
2023-03-24T01:42:55.688Z,1.42
2023-03-24T01:45:56.424Z,1.38
2023-03-24T01:48:53.168Z,0.75
2023-03-24T01:51:37.052Z,2.60
2023-03-24T01:54:21.975Z,1.20
2023-03-24T01:57:14.201Z,1.25
2023-03-24T01:59:47.062Z,1.92
2023-03-24T02:02:36.281Z,1.10
2023-03-24T02:05:08.934Z,1.00
2023-03-24T02:08:11.452Z,1.23
2023-03-24T02:10:39.350Z,1.27
2023-03-24T02:13:07.602Z,1.40
2023-03-24T02:15:42.466Z,1.20
2023-03-24T02:18:25.749Z,1.77
2023-03-24T02:21:11.677Z,2.05
2023-03-24T02:23:44.348Z,1.00
2023-03-24T02:26:13.987Z,1.67
2023-03-24T02:28:57.910Z,2.47
2023-03-24T02:31:43.498Z,1.02
2023-03-24T02:34:27.392Z,1.10
2023-03-24T02:37:12.912Z,1.05
2023-03-24T02:39:48.837Z,1.17
2023-03-24T02:42:34.404Z,1.25
2023-03-24T02:45:18.188Z,1.45
2023-03-24T02:47:47.759Z,1.08
2023-03-24T02:50:21.770Z,1.13
2023-03-24T02:52:57.123Z,1.30
2023-03-24T02:55:29.679Z,0.95
2023-03-24T02:58:03.182Z,1.27
2023-03-24T03:00:59.531Z,1.00
2023-03-24T03:03:50.663Z,1.20
2023-03-24T03:06:27.734Z,3.10
2023-03-24T03:08:59.072Z,1.20
2023-03-24T03:11:26.001Z,1.15
2023-03-24T03:14:03.838Z,1.42
2023-03-24T03:16:43.439Z,1.27
2023-03-24T03:19:20.628Z,2.00
2023-03-24T03:21:50.042Z,1.13
2023-03-24T03:24:29.658Z,1.55
2023-03-24T03:27:03.133Z,1.10
2023-03-24T03:29:37.273Z,1.92
2023-03-24T03:32:10.140Z,1.15
2023-03-24T03:34:50.254Z,1.90
2023-03-24T03:37:26.501Z,1.98
2023-03-24T03:40:09.548Z,1.35
2023-03-24T03:42:40.147Z,2.15
2023-03-24T03:45:11.304Z,1.05
2023-03-24T03:47:39.412Z,1.58
2023-03-24T03:50:09.009Z,1.25
2023-03-24T03:52:39.031Z,1.15
2023-03-24T03:55:07.700Z,1.25
2023-03-24T03:57:36.245Z,2.03
2023-03-24T04:00:19.966Z,1.05
2023-03-24T04:03:26.800Z,0.95
2023-03-24T04:06:31.916Z,1.77
2023-03-24T04:09:18.032Z,0.93
2023-03-24T04:11:51.039Z,1.23
2023-03-24T04:15:02.086Z,1.27
2023-03-24T04:17:37.731Z,2.78
2023-03-24T04:20:17.359Z,1.00
2023-03-24T04:23:14.934Z,1.00
2023-03-24T04:26:01.601Z,1.70
2023-03-24T04:28:35.031Z,0.95
2023-03-24T04:31:07.424Z,1.20
2023-03-24T04:34:03.144Z,1.73
2023-03-24T04:36:42.716Z,1.23
2023-03-24T04:39:38.840Z,1.27
2023-03-24T04:42:13.992Z,1.13
2023-03-24T04:44:41.952Z,1.48
2023-03-24T04:47:47.935Z,1.40
2023-03-24T04:50:38.461Z,1.98
2023-03-24T04:53:10.686Z,1.65
2023-03-24T04:55:50.599Z,1.10
2023-03-24T04:58:49.479Z,1.08
2023-03-24T05:01:17.273Z,1.20
2023-03-24T05:03:55.465Z,2.15
2023-03-24T05:06:22.482Z,1.65
2023-03-24T05:08:49.218Z,1.27
2023-03-24T05:11:16.233Z,1.35
2023-03-24T05:13:51.573Z,1.27
2023-03-24T05:16:18.339Z,2.05
2023-03-24T05:18:56.342Z,1.88
2023-03-24T05:21:23.297Z,3.50
2023-03-24T05:23:50.168Z,1.08
2023-03-24T05:26:17.004Z,1.30
2023-03-24T05:29:04.500Z,1.25
2023-03-24T05:31:31.390Z,1.92
2023-03-24T05:34:07.131Z,2.20
2023-03-24T05:36:43.619Z,1.77
2023-03-24T05:39:11.861Z,3.00
2023-03-24T05:41:48.666Z,1.75
2023-03-24T05:44:15.654Z,1.50
2023-03-24T05:46:51.172Z,4.70
2023-03-24T05:49:18.195Z,1.75
2023-03-24T05:51:44.872Z,2.63
2023-03-24T05:54:11.540Z,3.00
2023-03-24T05:56:43.096Z,1.27
2023-03-24T05:59:11.571Z,3.25
2023-03-24T06:01:56.810Z,2.25
2023-03-24T06:04:57.630Z,3.83
2023-03-24T06:07:26.907Z,2.35
2023-03-24T06:09:57.997Z,2.50
2023-03-24T06:12:25.253Z,2.38
2023-03-24T06:14:56.044Z,3.53
2023-03-24T06:17:24.877Z,1.25
2023-03-24T06:20:02.849Z,2.30
2023-03-24T06:22:59.172Z,2.28
2023-03-24T06:25:33.617Z,1.63
2023-03-24T06:28:26.032Z,1.83
2023-03-24T06:30:56.535Z,2.10
2023-03-24T06:33:30.926Z,1.77
2023-03-24T06:36:01.812Z,1.25
2023-03-24T06:38:30.496Z,1.05
2023-03-24T06:41:01.537Z,2.53
2023-03-24T06:43:29.052Z,2.05
2023-03-24T06:45:56.325Z,1.38
2023-03-24T06:48:24.968Z,1.38
2023-03-24T06:50:58.552Z,1.10
2023-03-24T06:53:25.343Z,1.13
2023-03-24T06:55:52.266Z,1.52
2023-03-24T06:58:21.353Z,2.05
2023-03-24T07:01:07.179Z,1.70
2023-03-24T07:06:16.576Z,1.20
2023-03-24T07:08:44.925Z,1.10
2023-03-24T07:11:12.073Z,2.97
2023-03-24T07:13:45.831Z,1.60
2023-03-24T07:16:12.619Z,1.25
2023-03-24T07:18:41.133Z,2.40
2023-03-24T07:21:08.470Z,1.65
2023-03-24T07:23:36.628Z,1.23
2023-03-24T07:26:09.857Z,2.95
2023-03-24T07:28:50.104Z,2.10
2023-03-24T07:34:02.014Z,3.67
2023-03-24T07:36:29.266Z,2.80
2023-03-24T07:38:57.414Z,2.28
2023-03-24T07:41:31.398Z,3.33
2023-03-24T07:44:02.696Z,3.30
2023-03-24T07:46:52.768Z,2.75
2023-03-24T07:49:21.477Z,1.40
2023-03-24T07:52:01.774Z,2.47
2023-03-24T07:54:36.602Z,3.13
2023-03-24T07:57:03.662Z,3.53
2023-03-24T07:59:30.701Z,4.95
2023-03-24T08:02:29.636Z,1.52
2023-03-24T08:05:20.632Z,1.75
2023-03-24T08:08:08.246Z,1.92
2023-03-24T08:10:35.237Z,2.67
2023-03-24T08:13:02.605Z,2.08
2023-03-24T08:15:29.986Z,1.90
2023-03-24T08:17:57.259Z,2.17
2023-03-24T08:20:27.103Z,4.05
2023-03-24T08:22:54.761Z,2.03
2023-03-24T08:25:24.843Z,4.20
2023-03-24T08:27:52.172Z,2.35
2023-03-24T08:30:24.934Z,1.90
2023-03-24T08:32:54.842Z,1.95
2023-03-24T08:35:26.112Z,2.20
2023-03-24T08:37:53.209Z,2.10
2023-03-24T08:40:23.947Z,3.35
2023-03-24T08:42:53.624Z,3.05
2023-03-24T08:45:22.230Z,2.50
2023-03-24T08:47:52.126Z,4.93
2023-03-24T08:50:25.984Z,3.13
2023-03-24T08:52:52.854Z,3.13
2023-03-24T08:55:21.411Z,3.83
2023-03-24T08:57:48.835Z,2.17
2023-03-24T09:00:16.692Z,2.90
2023-03-24T09:02:45.533Z,2.65
2023-03-24T09:05:13.358Z,2.45
2023-03-24T09:07:39.959Z,2.47
2023-03-24T09:10:08.130Z,3.10
2023-03-24T09:12:38.597Z,2.38
2023-03-24T09:15:07.434Z,2.90
2023-03-24T09:17:35.188Z,4.22
2023-03-24T09:20:08.375Z,3.35
2023-03-24T09:22:56.137Z,4.03
2023-03-24T09:25:22.971Z,4.32
2023-03-24T09:27:50.389Z,1.80
2023-03-24T09:30:18.490Z,4.28
2023-03-24T09:32:46.084Z,4.90
2023-03-24T09:35:13.659Z,4.28
2023-03-24T09:37:43.122Z,3.75
2023-03-24T09:40:21.472Z,2.85
2023-03-24T09:42:54.881Z,3.92
2023-03-24T09:45:23.968Z,3.55
2023-03-24T09:47:58.654Z,2.67
2023-03-24T09:50:41.098Z,3.25
2023-03-24T09:53:32.320Z,2.38
2023-03-24T09:56:07.291Z,3.15
2023-03-24T09:58:34.161Z,1.88
2023-03-24T10:01:01.224Z,3.15
2023-03-24T10:03:28.059Z,3.33
2023-03-24T10:06:08.133Z,4.45
2023-03-24T10:08:42.261Z,7.05
2023-03-24T10:11:18.960Z,3.70
2023-03-24T10:14:12.758Z,4.07
2023-03-24T10:16:57.984Z,3.05
2023-03-24T10:19:30.918Z,2.90
2023-03-24T10:22:09.352Z,3.58
2023-03-24T10:24:37.857Z,4.27
2023-03-24T10:27:10.382Z,2.88
2023-03-24T10:29:38.706Z,4.90
2023-03-24T10:32:22.415Z,4.00
2023-03-24T10:34:55.470Z,3.75
2023-03-24T10:37:22.216Z,5.15
2023-03-24T10:39:49.620Z,2.35
2023-03-24T10:42:21.934Z,3.35
2023-03-24T10:44:50.993Z,3.67
2023-03-24T10:47:24.248Z,5.65
2023-03-24T10:50:14.165Z,3.60
2023-03-24T10:52:46.485Z,4.20
2023-03-24T10:55:19.346Z,2.05
2023-03-24T10:57:53.671Z,3.47
2023-03-24T11:00:24.559Z,3.17
2023-03-24T11:03:00.789Z,4.65
2023-03-24T11:05:39.258Z,3.67
2023-03-24T11:08:28.605Z,4.70
2023-03-24T11:10:56.088Z,3.65
2023-03-24T11:13:23.013Z,3.97
2023-03-24T11:16:05.549Z,5.25
2023-03-24T11:18:32.531Z,3.97
2023-03-24T11:21:04.349Z,2.33
2023-03-24T11:23:32.409Z,4.93
2023-03-24T11:26:30.008Z,2.70
2023-03-24T11:29:00.156Z,4.00
2023-03-24T11:31:38.326Z,2.83
2023-03-24T11:34:20.046Z,2.13
2023-03-24T11:36:59.667Z,3.63
2023-03-24T11:39:29.100Z,1.88
2023-03-24T11:44:37.944Z,4.65
2023-03-24T11:47:11.845Z,2.25
2023-03-24T11:50:04.469Z,2.60
2023-03-24T11:52:55.580Z,2.70
2023-03-24T11:55:32.280Z,4.15
2023-03-24T11:58:10.784Z,4.57
2023-03-24T12:00:46.741Z,2.97
2023-03-24T12:03:19.898Z,6.25
2023-03-24T12:06:17.033Z,3.55
2023-03-24T12:08:54.409Z,3.90
2023-03-24T12:11:50.375Z,4.80
2023-03-24T12:14:30.765Z,2.55
2023-03-24T12:17:14.844Z,3.58
2023-03-24T12:20:05.691Z,4.38
2023-03-24T12:25:38.468Z,3.22
2023-03-24T12:28:11.718Z,2.80
2023-03-24T12:30:54.003Z,5.03
2023-03-24T12:33:24.103Z,3.38
2023-03-24T12:36:31.740Z,4.38
2023-03-24T12:39:12.897Z,3.28
2023-03-24T12:41:55.308Z,3.20
2023-03-24T12:44:58.798Z,3.13
2023-03-24T12:47:41.664Z,1.88
2023-03-24T12:50:23.695Z,2.15
2023-03-24T12:52:58.032Z,3.70
2023-03-24T12:55:46.871Z,2.38
2023-03-24T12:58:26.873Z,1.58
2023-03-24T13:01:01.276Z,2.88
2023-03-24T13:03:39.501Z,2.38
2023-03-24T13:06:32.980Z,2.72
2023-03-24T13:09:37.048Z,1.90
2023-03-24T13:12:13.625Z,1.77
2023-03-24T13:15:00.381Z,2.80
2023-03-24T13:17:51.038Z,2.08
2023-03-24T13:20:33.060Z,1.92
2023-03-24T13:23:19.623Z,1.40
2023-03-24T13:26:08.942Z,1.80
2023-03-24T13:28:44.745Z,1.33
2023-03-24T13:31:14.021Z,2.42
2023-03-24T13:36:32.628Z,2.33
2023-03-24T13:39:08.319Z,2.65
2023-03-24T13:41:39.874Z,1.80
2023-03-24T13:44:29.763Z,2.83
2023-03-24T13:47:15.198Z,2.60
2023-03-24T13:49:59.574Z,2.17
2023-03-24T13:52:32.941Z,2.05
2023-03-24T13:55:02.786Z,2.25
2023-03-24T13:57:30.161Z,1.55
2023-03-24T14:00:12.269Z,2.63
2023-03-24T14:02:50.380Z,1.30
2023-03-24T14:05:23.986Z,2.28
2023-03-24T14:07:51.979Z,2.75
2023-03-24T14:10:20.773Z,0.90
2023-03-24T14:12:54.492Z,2.08
2023-03-24T14:15:27.362Z,2.20
2023-03-24T14:17:56.568Z,2.50
2023-03-24T14:20:36.250Z,2.03
2023-03-24T14:23:04.504Z,1.25
2023-03-24T14:25:32.937Z,1.55
2023-03-24T14:28:21.619Z,2.77
2023-03-24T14:31:17.032Z,1.92
2023-03-24T14:34:02.110Z,2.28
2023-03-24T14:36:39.380Z,2.38
2023-03-24T14:39:19.985Z,2.13
2023-03-24T14:41:51.807Z,1.17
2023-03-24T14:44:51.370Z,2.42
2023-03-24T14:47:38.814Z,1.67
2023-03-24T14:50:21.622Z,1.40
2023-03-24T14:52:53.030Z,2.42
2023-03-24T14:55:21.801Z,2.10
2023-03-24T14:57:57.727Z,4.63
2023-03-24T15:01:06.614Z,1.70
2023-03-24T15:03:50.342Z,1.73
2023-03-24T15:06:23.363Z,1.83
2023-03-24T15:08:55.302Z,2.13
2023-03-24T15:11:26.092Z,3.80
2023-03-24T15:13:59.852Z,1.50
2023-03-24T15:16:32.029Z,5.75
2023-03-24T15:19:20.385Z,6.63
2023-03-24T15:22:02.597Z,13.45
2023-03-24T15:24:31.917Z,13.48
2023-03-24T15:27:07.714Z,13.05
2023-03-24T15:29:41.959Z,12.75
2023-03-24T15:32:21.201Z,15.88
2023-03-24T15:34:54.937Z,21.35
2023-03-24T15:37:25.759Z,28.80
2023-03-24T15:40:01.909Z,36.55
2023-03-24T15:42:41.848Z,36.70
2023-03-24T15:45:22.159Z,41.00
2023-03-24T15:47:51.933Z,41.28
2023-03-24T15:50:56.199Z,39.38
2023-03-24T15:53:44.850Z,42.38
2023-03-24T15:56:31.561Z,42.60
2023-03-24T15:59:04.020Z,44.30
2023-03-24T16:01:31.445Z,44.53
2023-03-24T16:04:01.255Z,46.03
2023-03-24T16:06:33.653Z,43.75
2023-03-24T16:09:02.187Z,46.60
2023-03-24T16:11:29.613Z,47.87
2023-03-24T16:13:57.733Z,48.13
2023-03-24T16:16:28.413Z,49.95
2023-03-24T16:18:56.926Z,46.78
2023-03-24T16:21:28.997Z,47.00
2023-03-24T16:23:57.742Z,49.55
2023-03-24T16:26:25.817Z,49.13
2023-03-24T16:28:54.076Z,48.35
2023-03-24T16:31:24.766Z,47.55
2023-03-24T16:33:52.366Z,48.47
2023-03-24T16:36:22.128Z,45.08
2023-03-24T16:38:52.190Z,47.95
2023-03-24T16:41:18.973Z,48.40
2023-03-24T16:43:46.091Z,46.78
2023-03-24T16:46:18.731Z,44.55
2023-03-24T16:48:45.630Z,44.38
2023-03-24T16:51:16.901Z,44.92
2023-03-24T16:53:45.310Z,45.33
2023-03-24T16:56:17.160Z,40.97
2023-03-24T16:58:45.385Z,43.17
2023-03-24T17:01:26.637Z,42.42
2023-03-24T17:04:02.420Z,39.08
2023-03-24T17:06:32.365Z,39.72
2023-03-24T17:08:59.612Z,39.90
2023-03-24T17:11:28.091Z,35.05
2023-03-24T17:13:57.277Z,38.27
2023-03-24T17:18:52.800Z,37.43
2023-03-24T17:21:20.106Z,35.88
2023-03-24T17:23:49.335Z,36.38
2023-03-24T17:26:16.975Z,34.10
2023-03-24T17:28:43.942Z,35.58
2023-03-24T17:31:10.865Z,31.90
2023-03-24T17:33:37.514Z,34.55
2023-03-24T17:36:04.849Z,34.55
2023-03-24T17:38:31.579Z,31.83
2023-03-24T17:41:03.157Z,34.22
2023-03-24T17:43:30.664Z,30.00
2023-03-24T17:45:58.390Z,31.48
2023-03-24T17:48:26.434Z,31.17
2023-03-24T17:50:53.803Z,29.05
2023-03-24T17:53:28.521Z,29.13
2023-03-24T17:55:58.534Z,29.50
2023-03-24T17:58:29.343Z,28.75
2023-03-24T18:00:58.477Z,29.70
2023-03-24T18:03:37.554Z,29.30
2023-03-24T18:06:12.026Z,27.55
2023-03-24T18:08:39.677Z,26.42
2023-03-24T18:11:11.644Z,25.65
2023-03-24T18:13:38.605Z,26.58
2023-03-24T18:16:20.012Z,25.90
2023-03-24T18:18:49.135Z,26.45
2023-03-24T18:21:16.120Z,24.33
2023-03-24T18:23:42.818Z,25.30
2023-03-24T18:26:09.712Z,23.70
2023-03-24T18:28:37.998Z,23.90
2023-03-24T18:31:20.135Z,24.77
2023-03-24T18:33:48.943Z,22.35
2023-03-24T18:36:21.366Z,21.65
2023-03-24T18:38:48.470Z,21.85
2023-03-24T18:41:16.791Z,22.23
2023-03-24T18:43:47.603Z,19.33
2023-03-24T18:46:14.880Z,20.27
2023-03-24T18:48:42.810Z,21.77
2023-03-24T18:51:10.060Z,22.15
2023-03-24T18:53:37.477Z,20.27
2023-03-24T18:56:05.999Z,18.30
2023-03-24T18:58:33.774Z,18.15
2023-03-24T19:01:07.015Z,19.05
2023-03-24T19:03:35.793Z,18.33
2023-03-24T19:06:06.315Z,18.38
2023-03-24T19:08:34.774Z,18.15
2023-03-24T19:11:01.621Z,18.07
2023-03-24T19:13:28.409Z,17.13
2023-03-24T19:15:55.317Z,16.75
2023-03-24T19:18:23.755Z,16.25
2023-03-24T19:20:55.956Z,16.23
2023-03-24T19:23:26.741Z,15.48
2023-03-24T19:25:55.148Z,14.35
2023-03-24T19:28:29.644Z,15.77
2023-03-24T19:30:58.151Z,15.07
2023-03-24T19:33:25.765Z,13.63
2023-03-24T19:35:53.188Z,13.05
2023-03-24T19:38:24.766Z,13.93
2023-03-24T19:40:53.895Z,13.75
2023-03-24T19:45:51.618Z,15.90
2023-03-24T19:48:19.331Z,12.13
2023-03-24T19:50:49.110Z,12.23
2023-03-24T19:53:16.088Z,12.10
2023-03-24T19:55:42.903Z,11.55
2023-03-24T19:58:09.814Z,11.77
2023-03-24T20:00:36.977Z,12.23
2023-03-24T20:03:03.780Z,10.27
2023-03-24T20:05:30.694Z,9.68
2023-03-24T20:07:59.734Z,9.48
2023-03-24T20:10:27.210Z,9.82
2023-03-24T20:12:54.751Z,9.65
2023-03-24T20:15:21.960Z,10.55
2023-03-24T20:17:48.904Z,10.82
2023-03-24T20:20:15.686Z,9.55
2023-03-24T20:22:45.598Z,9.63
2023-03-24T20:25:14.573Z,9.93
2023-03-24T20:27:41.481Z,8.38
2023-03-24T20:30:09.436Z,9.15
2023-03-24T20:32:37.006Z,9.43
2023-03-24T20:35:05.555Z,8.98
2023-03-24T20:37:35.575Z,9.33
2023-03-24T20:40:05.348Z,8.57
2023-03-24T20:42:33.115Z,9.20
2023-03-24T20:45:00.145Z,6.82
2023-03-24T20:47:26.879Z,7.38
2023-03-24T20:49:53.638Z,7.65
2023-03-24T20:52:20.780Z,7.53
2023-03-24T20:54:47.540Z,7.57
2023-03-24T20:57:14.370Z,7.50
2023-03-24T20:59:41.223Z,7.22
2023-03-24T21:02:09.959Z,8.20
2023-03-24T21:04:36.849Z,6.93
2023-03-24T21:07:03.689Z,7.60
2023-03-24T21:09:30.719Z,6.25
2023-03-24T21:11:57.520Z,6.25
2023-03-24T21:14:24.578Z,6.63
2023-03-24T21:16:51.672Z,7.53
2023-03-24T21:19:18.751Z,6.63
2023-03-24T21:21:49.451Z,5.38
2023-03-24T21:24:17.599Z,7.07
2023-03-24T21:26:46.207Z,4.72
2023-03-24T21:29:13.158Z,5.13
2023-03-24T21:31:41.757Z,5.07
2023-03-24T21:34:08.759Z,4.30
2023-03-24T21:36:38.533Z,4.22
2023-03-24T21:39:10.300Z,4.78
2023-03-24T21:41:39.013Z,4.97
2023-03-24T21:44:08.490Z,5.75
2023-03-24T21:46:36.774Z,5.50
2023-03-24T21:49:04.847Z,5.33
2023-03-24T21:51:36.807Z,4.93
2023-03-24T21:54:06.689Z,4.82
2023-03-24T21:56:34.972Z,5.78
2023-03-24T21:59:01.804Z,5.00
2023-03-24T22:01:28.789Z,5.78
2023-03-24T22:03:55.880Z,4.85
2023-03-24T22:06:23.097Z,5.80
2023-03-24T22:08:50.112Z,5.53
2023-03-24T22:11:19.053Z,4.78
2023-03-24T22:13:46.872Z,6.07
2023-03-24T22:16:14.441Z,5.22
2023-03-24T22:18:41.586Z,6.28
2023-03-24T22:21:10.636Z,3.85
2023-03-24T22:23:40.073Z,4.65
2023-03-24T22:26:10.753Z,3.72
2023-03-24T22:28:38.619Z,4.03
2023-03-24T22:31:10.805Z,5.82
2023-03-24T22:33:38.489Z,4.97
2023-03-24T22:36:06.280Z,3.58
2023-03-24T22:38:34.339Z,4.15
2023-03-24T22:41:06.776Z,4.07
2023-03-24T22:43:35.731Z,3.50
2023-03-24T22:46:03.715Z,3.40
2023-03-24T22:48:30.919Z,5.68
2023-03-24T22:50:57.663Z,4.38
2023-03-24T22:53:24.455Z,3.92
2023-03-24T22:55:51.692Z,4.95
2023-03-24T22:58:18.699Z,3.88
2023-03-24T23:00:48.602Z,5.22
2023-03-24T23:03:16.053Z,2.88
2023-03-24T23:05:46.427Z,3.33
2023-03-24T23:08:15.581Z,2.72
2023-03-24T23:13:11.808Z,3.50
2023-03-24T23:15:42.793Z,4.37
2023-03-24T23:18:10.883Z,4.07
2023-03-24T23:20:37.686Z,2.67
2023-03-24T23:23:06.770Z,3.13
2023-03-24T23:28:01.662Z,2.80
2023-03-24T23:30:28.482Z,3.78
2023-03-24T23:32:57.396Z,3.72
2023-03-24T23:35:24.182Z,3.70
2023-03-24T23:37:50.811Z,2.40
2023-03-24T23:40:18.036Z,1.92
2023-03-24T23:42:46.850Z,1.80
2023-03-24T23:45:18.196Z,2.28
2023-03-24T23:47:47.526Z,3.25
2023-03-24T23:50:17.387Z,2.15
2023-03-24T23:52:44.065Z,2.05
2023-03-24T23:55:13.495Z,2.47
